createdAt,value
2023-01-29T00:01:35.298Z,12.90
2023-01-29T00:04:04.573Z,13.00
2023-01-29T00:06:33.674Z,9.10
2023-01-29T00:09:02.549Z,9.40
2023-01-29T00:11:33.492Z,15.40
2023-01-29T00:14:02.393Z,15.90
2023-01-29T00:16:31.070Z,12.70
2023-01-29T00:19:02.202Z,12.80
2023-01-29T00:21:31.493Z,13.70
2023-01-29T00:24:00.570Z,13.20
2023-01-29T00:26:29.699Z,9.50
2023-01-29T00:28:58.291Z,15.10
2023-01-29T00:31:27.541Z,10.50
2023-01-29T00:33:56.305Z,12.30
2023-01-29T00:36:26.394Z,13.50
2023-01-29T00:38:59.566Z,10.10
2023-01-29T00:41:51.235Z,12.10
2023-01-29T00:44:38.593Z,12.70
2023-01-29T00:47:26.676Z,10.70
2023-01-29T00:49:55.942Z,10.60
2023-01-29T00:52:24.961Z,13.20
2023-01-29T00:54:55.169Z,16.60
2023-01-29T00:57:25.088Z,12.10
2023-01-29T00:59:55.125Z,9.90
2023-01-29T01:02:43.024Z,9.70
2023-01-29T01:05:18.431Z,11.70
2023-01-29T01:07:49.197Z,15.40
2023-01-29T01:10:26.821Z,10.30
2023-01-29T01:13:04.425Z,14.10
2023-01-29T01:15:37.331Z,11.90
2023-01-29T01:18:06.484Z,11.90
2023-01-29T01:20:36.443Z,11.70
2023-01-29T01:23:05.490Z,10.50
2023-01-29T01:25:34.593Z,9.50
2023-01-29T01:28:03.084Z,12.30
2023-01-29T01:30:33.313Z,10.00
2023-01-29T01:33:02.691Z,10.50
2023-01-29T01:35:32.513Z,12.50
2023-01-29T01:38:02.095Z,11.60
2023-01-29T01:40:31.871Z,9.00
2023-01-29T01:43:02.124Z,12.40
2023-01-29T01:45:36.389Z,12.50
2023-01-29T01:48:13.339Z,7.80
2023-01-29T01:51:03.733Z,10.90
2023-01-29T01:53:39.451Z,10.80
2023-01-29T01:56:17.391Z,7.90
2023-01-29T01:58:50.789Z,10.30
2023-01-29T02:01:23.277Z,12.50
2023-01-29T02:04:20.907Z,8.50
2023-01-29T02:07:08.744Z,10.10
2023-01-29T02:09:43.388Z,9.90
2023-01-29T02:12:13.708Z,10.00
2023-01-29T02:14:43.208Z,12.80
2023-01-29T02:17:14.203Z,12.20
2023-01-29T02:20:02.175Z,11.30
2023-01-29T02:22:55.870Z,10.80
2023-01-29T02:25:44.409Z,11.50
2023-01-29T02:28:21.692Z,11.00
2023-01-29T02:31:02.989Z,11.10
2023-01-29T02:33:40.241Z,9.90
2023-01-29T02:36:36.697Z,9.30
2023-01-29T02:39:38.643Z,9.10
2023-01-29T02:42:18.726Z,11.80
2023-01-29T02:44:52.606Z,9.70
2023-01-29T02:47:31.221Z,9.40
2023-01-29T02:50:20.739Z,8.70
2023-01-29T02:53:00.468Z,8.90
2023-01-29T02:55:36.560Z,9.30
2023-01-29T02:58:40.136Z,10.00
2023-01-29T03:01:13.795Z,8.50
2023-01-29T03:03:45.635Z,9.30
2023-01-29T03:06:33.307Z,7.40
2023-01-29T03:09:06.063Z,8.90
2023-01-29T03:11:41.834Z,8.40
2023-01-29T03:14:17.525Z,8.90
2023-01-29T03:16:51.510Z,9.40
2023-01-29T03:19:32.129Z,9.00
2023-01-29T03:22:04.592Z,9.20
2023-01-29T03:24:58.722Z,9.30
2023-01-29T03:27:49.816Z,7.80
2023-01-29T03:30:38.902Z,9.00
2023-01-29T03:33:24.783Z,8.90
2023-01-29T03:36:04.718Z,8.60
2023-01-29T03:38:33.617Z,9.40
2023-01-29T03:41:35.371Z,8.90
2023-01-29T03:44:18.805Z,10.00
2023-01-29T03:46:56.944Z,12.10
2023-01-29T03:49:40.862Z,8.40
2023-01-29T03:52:24.170Z,10.80
2023-01-29T03:55:07.197Z,10.30
2023-01-29T03:57:54.745Z,9.40
2023-01-29T04:00:43.804Z,8.40
2023-01-29T04:03:29.679Z,7.70
2023-01-29T04:06:05.959Z,8.80
2023-01-29T04:08:45.199Z,9.90
2023-01-29T04:11:16.724Z,8.90
2023-01-29T04:13:46.466Z,8.30
2023-01-29T04:16:39.639Z,8.50
2023-01-29T04:19:24.504Z,8.20
2023-01-29T04:22:11.185Z,7.50
2023-01-29T04:24:40.078Z,8.70
2023-01-29T04:27:27.799Z,7.90
2023-01-29T04:30:22.071Z,8.20
2023-01-29T04:33:09.422Z,8.10
2023-01-29T04:35:38.182Z,9.60
2023-01-29T04:38:17.019Z,11.50
2023-01-29T04:40:48.476Z,8.90
2023-01-29T04:43:40.534Z,9.20
2023-01-29T04:46:19.677Z,11.70
2023-01-29T04:49:10.043Z,11.60
2023-01-29T04:51:58.979Z,10.60
2023-01-29T04:54:46.291Z,12.60
2023-01-29T04:57:30.034Z,8.20
2023-01-29T05:00:37.956Z,9.30
2023-01-29T05:03:09.998Z,7.80
2023-01-29T05:05:42.730Z,9.90
2023-01-29T05:08:13.756Z,9.50
2023-01-29T05:10:42.950Z,9.50
2023-01-29T05:13:14.097Z,10.00
2023-01-29T05:15:48.523Z,10.10
2023-01-29T05:18:17.282Z,11.00
2023-01-29T05:20:46.162Z,7.50
2023-01-29T05:23:22.242Z,9.80
2023-01-29T05:25:52.373Z,11.10
2023-01-29T05:28:20.816Z,8.40
2023-01-29T05:30:53.038Z,9.70
2023-01-29T05:33:26.492Z,7.20
2023-01-29T05:35:55.902Z,9.50
2023-01-29T05:38:24.683Z,11.40
2023-01-29T05:40:53.284Z,8.80
2023-01-29T05:43:24.149Z,8.20
2023-01-29T05:45:54.731Z,10.00
2023-01-29T05:48:23.419Z,8.30
2023-01-29T05:50:52.222Z,8.50
2023-01-29T05:53:21.308Z,10.10
2023-01-29T05:55:50.179Z,9.40
2023-01-29T05:58:20.197Z,8.10
2023-01-29T06:00:48.787Z,8.30
2023-01-29T06:03:17.400Z,8.50
2023-01-29T06:05:46.264Z,7.80
2023-01-29T06:08:15.860Z,9.60
2023-01-29T06:10:44.444Z,11.00
2023-01-29T06:13:13.243Z,9.70
2023-01-29T06:15:43.064Z,7.90
2023-01-29T06:18:11.758Z,7.60
2023-01-29T06:20:40.411Z,8.80
2023-01-29T06:23:09.023Z,8.40
2023-01-29T06:25:37.807Z,8.60
2023-01-29T06:28:06.816Z,8.60
2023-01-29T06:30:35.644Z,8.70
2023-01-29T06:33:04.250Z,10.20
2023-01-29T06:35:32.963Z,7.30
2023-01-29T06:38:01.824Z,9.00
2023-01-29T06:40:30.613Z,8.00
2023-01-29T06:43:01.763Z,8.30
2023-01-29T06:45:30.410Z,6.90
2023-01-29T06:48:01.313Z,8.90
2023-01-29T06:50:30.276Z,8.50
2023-01-29T06:52:59.613Z,7.60
2023-01-29T06:55:28.156Z,6.60
2023-01-29T06:57:57.988Z,9.40
2023-01-29T07:00:28.682Z,7.20
2023-01-29T07:02:58.632Z,8.60
2023-01-29T07:05:28.043Z,10.50
2023-01-29T07:07:56.723Z,6.90
2023-01-29T07:10:25.593Z,10.60
2023-01-29T07:12:54.274Z,13.30
2023-01-29T07:15:22.765Z,8.60
2023-01-29T07:18:02.609Z,7.60
2023-01-29T07:20:32.020Z,8.00
2023-01-29T07:23:00.588Z,7.60
2023-01-29T07:25:30.715Z,10.10
2023-01-29T07:28:01.652Z,8.70
2023-01-29T07:30:30.544Z,9.10
2023-01-29T07:33:05.202Z,10.80
2023-01-29T07:35:43.236Z,10.60
2023-01-29T07:38:12.384Z,7.50
2023-01-29T07:40:41.163Z,9.20
2023-01-29T07:43:10.263Z,9.60
2023-01-29T07:45:40.686Z,10.00
2023-01-29T07:48:12.571Z,8.30
2023-01-29T07:50:41.838Z,10.30
2023-01-29T07:53:15.392Z,9.60
2023-01-29T07:55:47.187Z,11.00
2023-01-29T07:58:16.084Z,12.00
2023-01-29T08:00:45.588Z,11.10
2023-01-29T08:03:16.993Z,11.20
2023-01-29T08:05:46.227Z,9.10
2023-01-29T08:08:15.532Z,11.30
2023-01-29T08:10:44.537Z,10.20
2023-01-29T08:13:13.417Z,10.70
2023-01-29T08:15:46.287Z,12.20
2023-01-29T08:18:15.737Z,11.80
2023-01-29T08:20:44.501Z,10.10
2023-01-29T08:23:15.167Z,12.10
2023-01-29T08:25:43.965Z,12.40
2023-01-29T08:28:13.019Z,9.60
2023-01-29T08:30:42.227Z,13.30
2023-01-29T08:33:10.977Z,9.70
2023-01-29T08:35:41.626Z,10.50
2023-01-29T08:38:11.255Z,9.30
2023-01-29T08:40:40.947Z,11.20
2023-01-29T08:43:12.080Z,9.90
2023-01-29T08:45:42.972Z,13.20
2023-01-29T08:48:13.250Z,10.30
2023-01-29T08:50:41.726Z,11.60
2023-01-29T08:53:10.782Z,12.10
2023-01-29T08:55:40.437Z,10.00
2023-01-29T08:58:11.400Z,14.10
2023-01-29T09:00:39.868Z,9.60
2023-01-29T09:03:08.500Z,10.70
2023-01-29T09:05:41.385Z,12.20
2023-01-29T09:08:10.597Z,12.80
2023-01-29T09:10:39.077Z,12.60
2023-01-29T09:13:07.870Z,9.40
2023-01-29T09:15:36.456Z,15.80
2023-01-29T09:18:06.088Z,12.50
2023-01-29T09:20:34.853Z,11.70
2023-01-29T09:23:10.579Z,10.90
2023-01-29T09:25:39.093Z,12.10
2023-01-29T09:28:07.869Z,11.60
2023-01-29T09:30:38.561Z,10.90
2023-01-29T09:33:07.889Z,13.50
2023-01-29T09:35:36.599Z,12.40
2023-01-29T09:38:05.699Z,11.10
2023-01-29T09:40:34.586Z,12.00
2023-01-29T09:43:37.601Z,12.50
2023-01-29T09:46:15.539Z,12.70
2023-01-29T09:48:44.668Z,13.60
2023-01-29T09:51:28.279Z,12.40
2023-01-29T09:54:06.525Z,10.40
2023-01-29T09:56:35.801Z,11.50
2023-01-29T09:59:04.489Z,12.10
2023-01-29T10:01:48.789Z,13.70
2023-01-29T10:04:41.961Z,13.30
2023-01-29T10:07:23.890Z,11.80
2023-01-29T10:10:14.100Z,10.80
2023-01-29T10:13:21.596Z,11.40
2023-01-29T10:16:02.677Z,13.30
2023-01-29T10:19:13.123Z,15.50
2023-01-29T10:21:47.644Z,11.10
2023-01-29T10:24:25.048Z,11.00
2023-01-29T10:26:54.126Z,10.80
2023-01-29T10:29:23.829Z,11.00
2023-01-29T10:32:06.232Z,12.30
2023-01-29T10:34:41.185Z,12.40
2023-01-29T10:37:18.746Z,14.00
2023-01-29T10:39:47.459Z,12.20
2023-01-29T10:42:40.424Z,12.60
2023-01-29T10:45:35.525Z,13.20
2023-01-29T10:48:40.470Z,12.60
2023-01-29T10:51:19.263Z,11.40
2023-01-29T10:53:50.818Z,13.30
2023-01-29T10:56:35.710Z,13.50
2023-01-29T10:59:10.034Z,11.70
2023-01-29T11:01:39.460Z,13.10
2023-01-29T11:04:12.390Z,12.30
2023-01-29T11:06:41.068Z,11.00
2023-01-29T11:09:19.380Z,11.70
2023-01-29T11:11:54.772Z,11.10
2023-01-29T11:14:34.261Z,11.30
2023-01-29T11:17:03.177Z,10.50
2023-01-29T11:19:41.958Z,11.60
2023-01-29T11:22:20.244Z,10.30
2023-01-29T11:25:08.533Z,12.00
2023-01-29T11:27:47.255Z,12.40
2023-01-29T11:30:30.908Z,8.90
2023-01-29T11:33:19.049Z,10.20
2023-01-29T11:35:48.070Z,10.30
2023-01-29T11:38:16.720Z,11.60
2023-01-29T11:40:46.219Z,10.30
2023-01-29T11:43:20.970Z,9.50
2023-01-29T11:45:55.466Z,10.40
2023-01-29T11:48:41.066Z,10.50
2023-01-29T11:51:12.848Z,10.70
2023-01-29T11:53:44.107Z,11.60
2023-01-29T11:56:52.160Z,9.90
2023-01-29T11:59:30.579Z,9.10
2023-01-29T12:02:21.680Z,8.80
2023-01-29T12:04:52.098Z,10.20
2023-01-29T12:07:21.329Z,10.70
2023-01-29T12:09:54.613Z,10.10
2023-01-29T12:12:32.108Z,9.80
2023-01-29T12:15:17.586Z,9.80
2023-01-29T12:17:58.641Z,12.30
2023-01-29T12:20:32.240Z,10.50
2023-01-29T12:23:25.733Z,10.90
2023-01-29T12:26:08.706Z,9.70
2023-01-29T12:28:52.477Z,10.20
2023-01-29T12:31:30.126Z,9.70
2023-01-29T12:34:06.946Z,11.10
2023-01-29T12:36:38.196Z,9.70
2023-01-29T12:39:11.950Z,10.60
2023-01-29T12:41:46.242Z,11.50
2023-01-29T12:44:21.966Z,11.50
2023-01-29T12:46:55.359Z,13.00
2023-01-29T12:49:28.605Z,11.20
2023-01-29T12:52:37.785Z,12.70
2023-01-29T12:55:17.266Z,11.00
2023-01-29T12:57:59.131Z,10.90
2023-01-29T13:00:49.363Z,14.10
2023-01-29T13:03:30.317Z,14.40
2023-01-29T13:06:12.729Z,11.40
2023-01-29T13:08:52.221Z,10.10
2023-01-29T13:11:28.654Z,12.70
2023-01-29T13:14:02.466Z,13.00
2023-01-29T13:16:38.565Z,13.30
2023-01-29T13:19:20.563Z,12.30
2023-01-29T13:21:50.371Z,11.30
2023-01-29T13:24:24.076Z,12.20
2023-01-29T13:26:53.787Z,11.20
2023-01-29T13:29:29.040Z,13.00
2023-01-29T13:32:03.875Z,11.60
2023-01-29T13:34:36.808Z,12.30
2023-01-29T13:37:13.880Z,11.90
2023-01-29T13:39:49.834Z,11.00
2023-01-29T13:42:25.626Z,14.70
2023-01-29T13:44:58.995Z,14.50
2023-01-29T13:47:38.817Z,14.60
2023-01-29T13:50:10.640Z,11.30
2023-01-29T13:52:45.975Z,15.00
2023-01-29T13:55:18.754Z,14.80
2023-01-29T13:57:47.750Z,14.20
2023-01-29T14:00:31.889Z,17.30
2023-01-29T14:03:00.827Z,17.30
2023-01-29T14:05:30.221Z,14.80
2023-01-29T14:08:00.592Z,12.40
2023-01-29T14:10:38.309Z,11.10
2023-01-29T14:13:19.509Z,15.30
2023-01-29T14:15:58.290Z,13.40
2023-01-29T14:18:32.848Z,19.60
2023-01-29T14:21:32.937Z,15.20
2023-01-29T14:24:22.735Z,17.20
2023-01-29T14:26:56.146Z,16.60
2023-01-29T14:29:34.662Z,15.20
2023-01-29T14:32:07.976Z,15.10
2023-01-29T14:34:45.600Z,17.40
2023-01-29T14:37:18.212Z,13.60
2023-01-29T14:39:58.056Z,17.10
2023-01-29T14:42:36.681Z,16.30
2023-01-29T14:45:27.379Z,19.00
2023-01-29T14:48:05.616Z,16.60
2023-01-29T14:50:35.291Z,17.60
2023-01-29T14:53:11.983Z,17.10
2023-01-29T14:55:46.390Z,16.30
2023-01-29T14:58:20.633Z,17.30
2023-01-29T15:00:53.451Z,15.30
2023-01-29T15:03:46.101Z,18.20
2023-01-29T15:06:20.456Z,13.10
2023-01-29T15:08:55.952Z,15.30
2023-01-29T15:11:38.421Z,18.30
2023-01-29T15:14:11.831Z,17.10
2023-01-29T15:16:57.398Z,15.70
2023-01-29T15:19:35.687Z,16.80
2023-01-29T15:22:06.575Z,15.20
2023-01-29T15:24:38.640Z,17.60
2023-01-29T15:27:13.732Z,15.80
2023-01-29T15:29:45.184Z,16.50
2023-01-29T15:32:28.291Z,16.90
2023-01-29T15:34:58.404Z,20.60
2023-01-29T15:37:33.224Z,19.80
2023-01-29T15:40:03.842Z,18.80
2023-01-29T15:42:48.961Z,18.90
2023-01-29T15:45:34.554Z,18.00
2023-01-29T15:48:12.395Z,16.20
2023-01-29T15:50:42.753Z,13.90
2023-01-29T15:53:20.334Z,17.80
2023-01-29T15:55:51.960Z,16.40
2023-01-29T15:58:32.820Z,19.70
2023-01-29T16:01:02.895Z,16.40
2023-01-29T16:03:35.131Z,15.80
2023-01-29T16:06:07.543Z,21.10
2023-01-29T16:08:40.391Z,22.40
2023-01-29T16:11:10.539Z,18.50
2023-01-29T16:13:46.181Z,21.10
2023-01-29T16:16:16.332Z,18.90
2023-01-29T16:18:59.492Z,19.50
2023-01-29T16:21:34.554Z,20.20
2023-01-29T16:24:09.954Z,20.80
2023-01-29T16:26:44.789Z,18.70
2023-01-29T16:29:20.141Z,20.00
2023-01-29T16:31:53.232Z,20.00
2023-01-29T16:34:32.851Z,16.50
2023-01-29T16:37:06.357Z,17.90
2023-01-29T16:39:46.653Z,17.10
2023-01-29T16:42:20.827Z,19.10
2023-01-29T16:44:56.732Z,20.40
2023-01-29T16:47:30.312Z,17.10
2023-01-29T16:50:20.249Z,17.40
2023-01-29T16:52:58.464Z,10.10
2023-01-29T16:55:34.473Z,23.70
2023-01-29T16:58:10.155Z,17.50
2023-01-29T17:00:45.713Z,19.10
2023-01-29T17:03:18.012Z,22.00
2023-01-29T17:05:52.061Z,17.50
2023-01-29T17:08:36.314Z,17.70
2023-01-29T17:11:10.074Z,21.30
2023-01-29T17:13:46.173Z,21.90
2023-01-29T17:16:53.019Z,19.90
2023-01-29T17:19:26.457Z,21.40
2023-01-29T17:22:01.795Z,20.70
2023-01-29T17:24:33.024Z,18.50
2023-01-29T17:27:05.245Z,19.90
2023-01-29T17:29:36.768Z,23.50
2023-01-29T17:32:07.992Z,19.50
2023-01-29T17:34:38.201Z,23.70
2023-01-29T17:37:17.214Z,18.20
2023-01-29T17:39:53.795Z,21.40
2023-01-29T17:42:24.661Z,24.00
2023-01-29T17:44:57.534Z,27.00
2023-01-29T17:47:28.568Z,23.00
2023-01-29T17:49:59.090Z,19.20
2023-01-29T17:52:29.786Z,23.70
2023-01-29T17:55:04.424Z,21.00
2023-01-29T17:57:36.008Z,26.20
2023-01-29T18:00:27.839Z,27.00
2023-01-29T18:03:03.333Z,22.50
2023-01-29T18:05:35.004Z,22.70
2023-01-29T18:08:08.346Z,21.80
2023-01-29T18:10:39.565Z,21.40
2023-01-29T18:13:13.533Z,25.50
2023-01-29T18:15:43.605Z,21.90
2023-01-29T18:18:17.474Z,25.50
2023-01-29T18:20:50.398Z,19.60
2023-01-29T18:23:22.513Z,28.70
2023-01-29T18:26:00.033Z,24.60
2023-01-29T18:28:33.346Z,22.40
2023-01-29T18:31:09.015Z,21.80
2023-01-29T18:33:40.639Z,31.70
2023-01-29T18:36:13.123Z,24.50
2023-01-29T18:38:44.814Z,31.80
2023-01-29T18:41:15.707Z,28.00
2023-01-29T18:43:48.927Z,23.80
2023-01-29T18:46:27.097Z,29.70
2023-01-29T18:49:01.852Z,30.40
2023-01-29T18:51:34.360Z,21.10
2023-01-29T18:54:07.392Z,23.80
2023-01-29T18:56:38.987Z,22.60
2023-01-29T18:59:29.924Z,25.70
2023-01-29T19:02:00.981Z,26.90
2023-01-29T19:04:32.390Z,28.40
2023-01-29T19:07:02.774Z,27.20
2023-01-29T19:09:34.388Z,24.90
2023-01-29T19:12:08.361Z,28.70
2023-01-29T19:14:41.951Z,25.90
2023-01-29T19:17:13.277Z,28.60
2023-01-29T19:19:44.229Z,25.50
2023-01-29T19:22:19.038Z,28.90
2023-01-29T19:24:53.368Z,23.50
2023-01-29T19:27:24.440Z,29.40
2023-01-29T19:29:57.613Z,23.00
2023-01-29T19:32:31.527Z,22.70
2023-01-29T19:35:01.605Z,23.20
2023-01-29T19:37:34.849Z,24.60
2023-01-29T19:40:06.482Z,25.80
2023-01-29T19:42:38.694Z,23.00
2023-01-29T19:45:09.559Z,24.00
2023-01-29T19:47:46.915Z,24.40
2023-01-29T19:50:18.580Z,20.60
2023-01-29T19:52:51.667Z,18.90
2023-01-29T19:55:25.315Z,22.90
2023-01-29T19:57:59.960Z,21.20
2023-01-29T20:00:34.314Z,16.60
2023-01-29T20:03:07.201Z,26.20
2023-01-29T20:05:38.811Z,20.20
2023-01-29T20:08:09.276Z,20.20
2023-01-29T20:10:40.302Z,16.00
2023-01-29T20:13:11.416Z,19.40
2023-01-29T20:15:49.405Z,17.90
2023-01-29T20:18:20.942Z,16.50
2023-01-29T20:20:53.967Z,21.30
2023-01-29T20:23:37.310Z,19.60
2023-01-29T20:26:10.843Z,23.30
2023-01-29T20:28:42.358Z,19.60
2023-01-29T20:31:12.821Z,23.00
2023-01-29T20:33:46.672Z,20.80
2023-01-29T20:36:17.300Z,15.40
2023-01-29T20:38:58.674Z,18.30
2023-01-29T20:41:31.369Z,21.10
2023-01-29T20:44:02.184Z,18.80
2023-01-29T20:46:35.505Z,17.40
2023-01-29T20:49:08.102Z,17.20
2023-01-29T20:51:40.579Z,19.40
2023-01-29T20:54:13.527Z,15.70
2023-01-29T20:56:46.163Z,15.50
2023-01-29T20:59:21.010Z,14.20
2023-01-29T21:01:52.443Z,14.60
2023-01-29T21:04:22.819Z,16.90
2023-01-29T21:06:52.736Z,19.60
2023-01-29T21:09:24.396Z,12.90
2023-01-29T21:11:55.704Z,15.60
2023-01-29T21:14:25.645Z,12.80
2023-01-29T21:16:58.234Z,12.90
2023-01-29T21:19:31.269Z,13.10
2023-01-29T21:22:01.327Z,13.10
2023-01-29T21:24:31.529Z,15.90
2023-01-29T21:27:02.040Z,14.90
2023-01-29T21:29:31.896Z,14.20
2023-01-29T21:32:02.337Z,14.40
2023-01-29T21:34:35.977Z,14.50
2023-01-29T21:37:06.133Z,13.60
2023-01-29T21:39:35.628Z,13.60
2023-01-29T21:42:23.901Z,12.60
2023-01-29T21:44:53.269Z,13.10
2023-01-29T21:47:22.686Z,14.90
2023-01-29T21:49:57.503Z,13.60
2023-01-29T21:52:27.531Z,14.40
2023-01-29T21:54:57.250Z,13.10
2023-01-29T21:57:27.348Z,17.10
2023-01-29T21:59:58.122Z,14.10
2023-01-29T22:02:28.546Z,15.00
2023-01-29T22:05:17.607Z,15.90
2023-01-29T22:07:48.643Z,12.10
2023-01-29T22:10:18.841Z,15.10
2023-01-29T22:12:48.459Z,18.10
2023-01-29T22:15:17.348Z,14.70
2023-01-29T22:17:45.940Z,14.40
2023-01-29T22:20:16.233Z,11.00
2023-01-29T22:22:45.631Z,20.40
2023-01-29T22:25:20.278Z,14.80
2023-01-29T22:27:48.945Z,14.80
2023-01-29T22:30:18.297Z,15.90
2023-01-29T22:32:47.039Z,14.10
2023-01-29T22:35:16.022Z,15.70
2023-01-29T22:37:45.533Z,18.70
2023-01-29T22:40:14.538Z,17.20
2023-01-29T22:42:43.231Z,15.40
2023-01-29T22:45:12.402Z,14.30
2023-01-29T22:47:41.111Z,15.30
2023-01-29T22:50:10.750Z,17.10
2023-01-29T22:52:39.712Z,14.50
2023-01-29T22:55:10.972Z,14.30
2023-01-29T22:57:40.450Z,19.70
2023-01-29T23:00:11.372Z,14.70
2023-01-29T23:02:40.175Z,18.10
2023-01-29T23:05:09.272Z,19.10
2023-01-29T23:07:38.178Z,18.00
2023-01-29T23:10:07.655Z,17.30
2023-01-29T23:12:36.352Z,13.80
2023-01-29T23:15:06.613Z,13.40
2023-01-29T23:17:35.340Z,12.70
2023-01-29T23:20:04.350Z,17.40
2023-01-29T23:22:32.921Z,15.50
2023-01-29T23:25:03.047Z,15.60
2023-01-29T23:27:31.733Z,17.10
2023-01-29T23:30:00.539Z,19.40
2023-01-29T23:32:29.421Z,16.80
2023-01-29T23:34:59.635Z,16.70
2023-01-29T23:37:28.428Z,17.90
2023-01-29T23:39:57.100Z,14.90
2023-01-29T23:42:25.811Z,13.70
2023-01-29T23:44:54.577Z,16.70
2023-01-29T23:47:23.169Z,17.30
2023-01-29T23:49:53.314Z,15.40
2023-01-29T23:52:22.896Z,13.20
2023-01-29T23:54:51.361Z,16.80
2023-01-29T23:57:21.480Z,17.90
2023-01-29T23:59:50.005Z,15.50
